sensor_id;sensor_type;location;lat;lon;timestamp;P1;durP1;ratioP1;P2;durP2;ratioP2
22502;SDS011;11418;48.118;9.992;2022-09-03T00:02:41;3.58;;;2.67;;
22502;SDS011;11418;48.118;9.992;2022-09-03T00:06:51;2.78;;;2.58;;
22502;SDS011;11418;48.118;9.992;2022-09-03T00:11:02;2.95;;;2.60;;
22502;SDS011;11418;48.118;9.992;2022-09-03T00:15:17;2.90;;;2.65;;
22502;SDS011;11418;48.118;9.992;2022-09-03T00:19:22;3.88;;;2.70;;
22502;SDS011;11418;48.118;9.992;2022-09-03T00:23:27;3.92;;;3.17;;
22502;SDS011;11418;48.118;9.992;2022-09-03T00:27:29;4.28;;;3.40;;
22502;SDS011;11418;48.118;9.992;2022-09-03T00:31:37;5.25;;;3.45;;
22502;SDS011;11418;48.118;9.992;2022-09-03T00:35:53;3.42;;;2.90;;
22502;SDS011;11418;48.118;9.992;2022-09-03T00:40:01;3.90;;;3.47;;
22502;SDS011;11418;48.118;9.992;2022-09-03T00:48:52;3.45;;;3.15;;
22502;SDS011;11418;48.118;9.992;2022-09-03T00:57:22;3.72;;;3.33;;
22502;SDS011;11418;48.118;9.992;2022-09-03T01:10:27;5.80;;;3.42;;
22502;SDS011;11418;48.118;9.992;2022-09-03T01:26:57;3.75;;;3.30;;
22502;SDS011;11418;48.118;9.992;2022-09-03T01:44:09;4.07;;;3.67;;
22502;SDS011;11418;48.118;9.992;2022-09-03T02:01:08;5.35;;;3.45;;
22502;SDS011;11418;48.118;9.992;2022-09-03T02:05:15;6.20;;;3.97;;
22502;SDS011;11418;48.118;9.992;2022-09-03T02:09:23;5.07;;;4.00;;
22502;SDS011;11418;48.118;9.992;2022-09-03T02:13:31;5.13;;;3.83;;
22502;SDS011;11418;48.118;9.992;2022-09-03T02:17:36;13.23;;;4.60;;
22502;SDS011;11418;48.118;9.992;2022-09-03T02:21:39;5.35;;;4.55;;
22502;SDS011;11418;48.118;9.992;2022-09-03T02:25:52;7.60;;;4.78;;
22502;SDS011;11418;48.118;9.992;2022-09-03T02:29:56;5.18;;;4.68;;
22502;SDS011;11418;48.118;9.992;2022-09-03T02:33:57;5.72;;;4.82;;
22502;SDS011;11418;48.118;9.992;2022-09-03T02:38:07;5.85;;;4.72;;
22502;SDS011;11418;48.118;9.992;2022-09-03T02:42:09;5.82;;;4.40;;
22502;SDS011;11418;48.118;9.992;2022-09-03T02:46:22;5.90;;;5.00;;
22502;SDS011;11418;48.118;9.992;2022-09-03T02:50:26;5.53;;;4.68;;
22502;SDS011;11418;48.118;9.992;2022-09-03T02:54:27;5.18;;;4.68;;
22502;SDS011;11418;48.118;9.992;2022-09-03T02:58:28;5.47;;;4.30;;
22502;SDS011;11418;48.118;9.992;2022-09-03T03:02:30;5.72;;;4.78;;
22502;SDS011;11418;48.118;9.992;2022-09-03T03:06:31;5.40;;;4.57;;
22502;SDS011;11418;48.118;9.992;2022-09-03T03:10:32;6.43;;;4.68;;
22502;SDS011;11418;48.118;9.992;2022-09-03T03:14:32;5.50;;;4.28;;
22502;SDS011;11418;48.118;9.992;2022-09-03T03:18:33;7.50;;;4.55;;
22502;SDS011;11418;48.118;9.992;2022-09-03T03:22:34;7.65;;;5.90;;
22502;SDS011;11418;48.118;9.992;2022-09-03T03:26:34;7.50;;;5.80;;
22502;SDS011;11418;48.118;9.992;2022-09-03T03:30:38;8.55;;;5.57;;
22502;SDS011;11418;48.118;9.992;2022-09-03T03:34:39;10.38;;;5.43;;
22502;SDS011;11418;48.118;9.992;2022-09-03T03:38:40;7.15;;;5.40;;
22502;SDS011;11418;48.118;9.992;2022-09-03T03:42:42;5.55;;;4.95;;
22502;SDS011;11418;48.118;9.992;2022-09-03T03:46:42;8.10;;;5.25;;
22502;SDS011;11418;48.118;9.992;2022-09-03T03:50:44;5.70;;;5.15;;
22502;SDS011;11418;48.118;9.992;2022-09-03T03:54:46;7.03;;;5.07;;
22502;SDS011;11418;48.118;9.992;2022-09-03T03:58:49;6.82;;;5.57;;
22502;SDS011;11418;48.118;9.992;2022-09-03T04:02:50;6.20;;;5.55;;
22502;SDS011;11418;48.118;9.992;2022-09-03T04:06:51;6.32;;;5.72;;
22502;SDS011;11418;48.118;9.992;2022-09-03T04:10:52;6.22;;;5.60;;
22502;SDS011;11418;48.118;9.992;2022-09-03T04:14:52;5.70;;;5.10;;
22502;SDS011;11418;48.118;9.992;2022-09-03T04:18:53;5.78;;;5.18;;
22502;SDS011;11418;48.118;9.992;2022-09-03T04:22:58;5.95;;;5.35;;
22502;SDS011;11418;48.118;9.992;2022-09-03T04:27:00;9.93;;;6.10;;
22502;SDS011;11418;48.118;9.992;2022-09-03T04:31:01;9.20;;;5.75;;
22502;SDS011;11418;48.118;9.992;2022-09-03T04:35:03;12.57;;;5.90;;
22502;SDS011;11418;48.118;9.992;2022-09-03T04:39:03;9.80;;;6.05;;
22502;SDS011;11418;48.118;9.992;2022-09-03T04:43:04;9.40;;;6.13;;
22502;SDS011;11418;48.118;9.992;2022-09-03T04:47:05;9.48;;;5.97;;
22502;SDS011;11418;48.118;9.992;2022-09-03T04:51:13;8.32;;;6.13;;
22502;SDS011;11418;48.118;9.992;2022-09-03T04:55:15;7.32;;;6.40;;
22502;SDS011;11418;48.118;9.992;2022-09-03T04:59:15;10.05;;;6.78;;
22502;SDS011;11418;48.118;9.992;2022-09-03T05:03:16;7.28;;;6.57;;
22502;SDS011;11418;48.118;9.992;2022-09-03T05:07:16;9.00;;;6.78;;
22502;SDS011;11418;48.118;9.992;2022-09-03T05:11:19;8.80;;;6.70;;
22502;SDS011;11418;48.118;9.992;2022-09-03T05:15:20;9.13;;;6.75;;
22502;SDS011;11418;48.118;9.992;2022-09-03T05:19:21;8.88;;;6.95;;
22502;SDS011;11418;48.118;9.992;2022-09-03T05:23:21;9.85;;;6.40;;
22502;SDS011;11418;48.118;9.992;2022-09-03T05:27:22;8.07;;;7.05;;
22502;SDS011;11418;48.118;9.992;2022-09-03T05:31:23;10.35;;;7.32;;
22502;SDS011;11418;48.118;9.992;2022-09-03T05:35:26;8.95;;;7.63;;
22502;SDS011;11418;48.118;9.992;2022-09-03T05:39:27;8.57;;;7.68;;
22502;SDS011;11418;48.118;9.992;2022-09-03T05:43:28;7.60;;;6.80;;
22502;SDS011;11418;48.118;9.992;2022-09-03T05:47:29;12.90;;;6.90;;
22502;SDS011;11418;48.118;9.992;2022-09-03T05:51:29;6.97;;;6.28;;
22502;SDS011;11418;48.118;9.992;2022-09-03T05:55:30;6.55;;;5.85;;
22502;SDS011;11418;48.118;9.992;2022-09-03T05:59:31;8.48;;;6.05;;
22502;SDS011;11418;48.118;9.992;2022-09-03T06:03:31;9.63;;;6.97;;
22502;SDS011;11418;48.118;9.992;2022-09-03T06:07:32;7.28;;;6.57;;
22502;SDS011;11418;48.118;9.992;2022-09-03T06:11:33;10.73;;;6.80;;
22502;SDS011;11418;48.118;9.992;2022-09-03T06:15:34;10.15;;;7.03;;
22502;SDS011;11418;48.118;9.992;2022-09-03T06:19:35;10.23;;;7.07;;
22502;SDS011;11418;48.118;9.992;2022-09-03T06:23:36;7.93;;;6.78;;
22502;SDS011;11418;48.118;9.992;2022-09-03T06:27:36;10.98;;;7.18;;
22502;SDS011;11418;48.118;9.992;2022-09-03T06:31:37;7.85;;;5.55;;
22502;SDS011;11418;48.118;9.992;2022-09-03T06:35:38;7.03;;;5.50;;
22502;SDS011;11418;48.118;9.992;2022-09-03T06:39:41;4.95;;;4.30;;
22502;SDS011;11418;48.118;9.992;2022-09-03T06:43:41;5.55;;;4.50;;
22502;SDS011;11418;48.118;9.992;2022-09-03T06:47:42;4.57;;;4.13;;
22502;SDS011;11418;48.118;9.992;2022-09-03T06:51:42;5.07;;;3.85;;
22502;SDS011;11418;48.118;9.992;2022-09-03T06:55:51;4.97;;;4.30;;
22502;SDS011;11418;48.118;9.992;2022-09-03T06:59:52;6.35;;;4.47;;
22502;SDS011;11418;48.118;9.992;2022-09-03T07:03:55;5.43;;;4.57;;
22502;SDS011;11418;48.118;9.992;2022-09-03T07:07:57;6.25;;;3.90;;
22502;SDS011;11418;48.118;9.992;2022-09-03T07:11:57;4.72;;;3.50;;
22502;SDS011;11418;48.118;9.992;2022-09-03T07:15:59;3.85;;;2.55;;
22502;SDS011;11418;48.118;9.992;2022-09-03T07:20:04;3.13;;;2.83;;
22502;SDS011;11418;48.118;9.992;2022-09-03T07:24:05;3.47;;;2.42;;
22502;SDS011;11418;48.118;9.992;2022-09-03T07:28:06;2.47;;;2.25;;
22502;SDS011;11418;48.118;9.992;2022-09-03T07:32:06;2.65;;;2.45;;
22502;SDS011;11418;48.118;9.992;2022-09-03T07:36:12;2.17;;;1.90;;
22502;SDS011;11418;48.118;9.992;2022-09-03T07:40:14;2.28;;;1.95;;
22502;SDS011;11418;48.118;9.992;2022-09-03T07:44:17;1.90;;;1.30;;
22502;SDS011;11418;48.118;9.992;2022-09-03T07:48:18;1.73;;;1.42;;
22502;SDS011;11418;48.118;9.992;2022-09-03T07:52:18;2.45;;;1.30;;
22502;SDS011;11418;48.118;9.992;2022-09-03T07:56:19;1.92;;;1.20;;
22502;SDS011;11418;48.118;9.992;2022-09-03T08:00:20;1.75;;;1.50;;
22502;SDS011;11418;48.118;9.992;2022-09-03T08:04:21;1.50;;;1.33;;
22502;SDS011;11418;48.118;9.992;2022-09-03T08:08:22;1.40;;;1.23;;
22502;SDS011;11418;48.118;9.992;2022-09-03T08:12:22;1.60;;;1.50;;
22502;SDS011;11418;48.118;9.992;2022-09-03T08:16:23;1.50;;;1.30;;
22502;SDS011;11418;48.118;9.992;2022-09-03T08:20:24;1.70;;;1.58;;
22502;SDS011;11418;48.118;9.992;2022-09-03T08:24:25;1.70;;;1.60;;
22502;SDS011;11418;48.118;9.992;2022-09-03T08:28:26;1.98;;;1.70;;
22502;SDS011;11418;48.118;9.992;2022-09-03T08:32:27;1.85;;;1.63;;
22502;SDS011;11418;48.118;9.992;2022-09-03T08:36:28;2.28;;;2.00;;
22502;SDS011;11418;48.118;9.992;2022-09-03T08:40:30;2.22;;;1.80;;
22502;SDS011;11418;48.118;9.992;2022-09-03T08:44:39;2.22;;;1.92;;
22502;SDS011;11418;48.118;9.992;2022-09-03T08:48:47;2.45;;;2.22;;
22502;SDS011;11418;48.118;9.992;2022-09-03T08:56:50;2.42;;;1.95;;
22502;SDS011;11418;48.118;9.992;2022-09-03T09:00:53;2.67;;;1.85;;
22502;SDS011;11418;48.118;9.992;2022-09-03T09:05:11;2.20;;;1.77;;
22502;SDS011;11418;48.118;9.992;2022-09-03T09:13:27;6.00;;;2.67;;
22502;SDS011;11418;48.118;9.992;2022-09-03T09:22:00;1.73;;;1.30;;
22502;SDS011;11418;48.118;9.992;2022-09-03T09:26:06;1.13;;;1.02;;
22502;SDS011;11418;48.118;9.992;2022-09-03T09:30:14;1.40;;;1.20;;
22502;SDS011;11418;48.118;9.992;2022-09-03T09:34:16;1.52;;;1.30;;
22502;SDS011;11418;48.118;9.992;2022-09-03T09:38:26;1.30;;;1.20;;
22502;SDS011;11418;48.118;9.992;2022-09-03T09:42:28;2.58;;;1.20;;
22502;SDS011;11418;48.118;9.992;2022-09-03T09:46:39;2.45;;;1.27;;
22502;SDS011;11418;48.118;9.992;2022-09-03T09:50:41;1.60;;;1.30;;
22502;SDS011;11418;48.118;9.992;2022-09-03T09:54:43;1.20;;;1.10;;
22502;SDS011;11418;48.118;9.992;2022-09-03T09:58:47;1.25;;;1.00;;
22502;SDS011;11418;48.118;9.992;2022-09-03T10:02:49;1.17;;;1.08;;
22502;SDS011;11418;48.118;9.992;2022-09-03T10:06:53;1.00;;;0.90;;
22502;SDS011;11418;48.118;9.992;2022-09-03T10:10:56;5.22;;;1.23;;
22502;SDS011;11418;48.118;9.992;2022-09-03T10:19:24;1.45;;;1.35;;
22502;SDS011;11418;48.118;9.992;2022-09-03T10:28:14;4.00;;;1.60;;
22502;SDS011;11418;48.118;9.992;2022-09-03T10:36:23;2.67;;;1.10;;
22502;SDS011;11418;48.118;9.992;2022-09-03T10:49:19;1.38;;;1.23;;
22502;SDS011;11418;48.118;9.992;2022-09-03T11:02:18;1.38;;;1.02;;
22502;SDS011;11418;48.118;9.992;2022-09-03T11:06:47;2.08;;;1.25;;
22502;SDS011;11418;48.118;9.992;2022-09-03T11:11:11;1.88;;;1.33;;
22502;SDS011;11418;48.118;9.992;2022-09-03T11:15:27;2.75;;;1.38;;
22502;SDS011;11418;48.118;9.992;2022-09-03T11:19:41;3.17;;;1.50;;
22502;SDS011;11418;48.118;9.992;2022-09-03T11:23:58;1.30;;;1.20;;
22502;SDS011;11418;48.118;9.992;2022-09-03T11:41:31;1.30;;;1.20;;
22502;SDS011;11418;48.118;9.992;2022-09-03T11:45:37;4.47;;;1.30;;
22502;SDS011;11418;48.118;9.992;2022-09-03T11:49:42;2.38;;;1.38;;
22502;SDS011;11418;48.118;9.992;2022-09-03T11:53:57;2.45;;;1.00;;
22502;SDS011;11418;48.118;9.992;2022-09-03T11:58:11;1.23;;;0.98;;
22502;SDS011;11418;48.118;9.992;2022-09-03T12:02:29;3.13;;;1.10;;
22502;SDS011;11418;48.118;9.992;2022-09-03T12:11:03;2.00;;;0.98;;
22502;SDS011;11418;48.118;9.992;2022-09-03T12:15:30;2.03;;;1.10;;
22502;SDS011;11418;48.118;9.992;2022-09-03T12:19:54;4.88;;;1.35;;
22502;SDS011;11418;48.118;9.992;2022-09-03T12:23:56;2.75;;;1.23;;
22502;SDS011;11418;48.118;9.992;2022-09-03T12:27:57;2.72;;;1.40;;
22502;SDS011;11418;48.118;9.992;2022-09-03T12:32:05;1.73;;;1.20;;
22502;SDS011;11418;48.118;9.992;2022-09-03T12:36:07;3.53;;;1.60;;
22502;SDS011;11418;48.118;9.992;2022-09-03T12:40:15;1.60;;;1.20;;
22502;SDS011;11418;48.118;9.992;2022-09-03T12:44:24;2.15;;;1.30;;
22502;SDS011;11418;48.118;9.992;2022-09-03T12:48:28;1.92;;;1.20;;
22502;SDS011;11418;48.118;9.992;2022-09-03T12:52:31;1.67;;;1.20;;
22502;SDS011;11418;48.118;9.992;2022-09-03T12:56:35;1.38;;;1.25;;
22502;SDS011;11418;48.118;9.992;2022-09-03T13:00:39;1.42;;;1.30;;
22502;SDS011;11418;48.118;9.992;2022-09-03T13:04:45;1.45;;;1.10;;
22502;SDS011;11418;48.118;9.992;2022-09-03T13:08:47;1.40;;;1.30;;
22502;SDS011;11418;48.118;9.992;2022-09-03T13:12:49;2.42;;;1.30;;
22502;SDS011;11418;48.118;9.992;2022-09-03T13:30:14;2.28;;;1.10;;
22502;SDS011;11418;48.118;9.992;2022-09-03T13:34:24;1.38;;;1.27;;
22502;SDS011;11418;48.118;9.992;2022-09-03T13:38:36;1.45;;;1.30;;
22502;SDS011;11418;48.118;9.992;2022-09-03T13:42:43;1.23;;;1.13;;
22502;SDS011;11418;48.118;9.992;2022-09-03T13:46:51;1.83;;;1.40;;
22502;SDS011;11418;48.118;9.992;2022-09-03T13:55:28;2.05;;;1.73;;
22502;SDS011;11418;48.118;9.992;2022-09-03T14:03:51;3.72;;;1.65;;
22502;SDS011;11418;48.118;9.992;2022-09-03T14:08:00;1.83;;;1.65;;
22502;SDS011;11418;48.118;9.992;2022-09-03T14:20:54;2.85;;;1.80;;
22502;SDS011;11418;48.118;9.992;2022-09-03T14:24:59;2.42;;;1.88;;
22502;SDS011;11418;48.118;9.992;2022-09-03T14:33:16;2.58;;;1.52;;
22502;SDS011;11418;48.118;9.992;2022-09-03T14:38:07;1.83;;;1.50;;
22502;SDS011;11418;48.118;9.992;2022-09-03T14:42:35;2.10;;;1.90;;
22502;SDS011;11418;48.118;9.992;2022-09-03T15:08:37;2.63;;;1.30;;
22502;SDS011;11418;48.118;9.992;2022-09-03T15:12:58;1.57;;;1.37;;
22502;SDS011;11418;48.118;9.992;2022-09-03T15:17:18;1.27;;;1.17;;
22502;SDS011;11418;48.118;9.992;2022-09-03T15:30:04;1.98;;;1.20;;
22502;SDS011;11418;48.118;9.992;2022-09-03T15:34:15;1.92;;;1.30;;
22502;SDS011;11418;48.118;9.992;2022-09-03T15:42:41;1.30;;;1.20;;
22502;SDS011;11418;48.118;9.992;2022-09-03T15:51:19;1.52;;;1.10;;
22502;SDS011;11418;48.118;9.992;2022-09-03T15:59:40;2.85;;;1.33;;
22502;SDS011;11418;48.118;9.992;2022-09-03T16:04:06;1.45;;;1.23;;
22502;SDS011;11418;48.118;9.992;2022-09-03T16:12:35;1.15;;;1.05;;
22502;SDS011;11418;48.118;9.992;2022-09-03T16:21:02;1.60;;;1.15;;
22502;SDS011;11418;48.118;9.992;2022-09-03T16:25:09;7.15;;;1.98;;
22502;SDS011;11418;48.118;9.992;2022-09-03T16:29:17;4.32;;;1.10;;
22502;SDS011;11418;48.118;9.992;2022-09-03T16:51:05;1.33;;;1.20;;
22502;SDS011;11418;48.118;9.992;2022-09-03T16:55:30;2.05;;;1.20;;
22502;SDS011;11418;48.118;9.992;2022-09-03T17:04:21;11.32;;;8.02;;
22502;SDS011;11418;48.118;9.992;2022-09-03T17:08:44;4.78;;;4.10;;
22502;SDS011;11418;48.118;9.992;2022-09-03T17:25:50;3.05;;;2.60;;
22502;SDS011;11418;48.118;9.992;2022-09-03T17:30:03;2.22;;;1.60;;
22502;SDS011;11418;48.118;9.992;2022-09-03T17:55:37;2.67;;;1.95;;
22502;SDS011;11418;48.118;9.992;2022-09-03T18:00:08;2.10;;;1.85;;
22502;SDS011;11418;48.118;9.992;2022-09-03T18:04:17;2.65;;;2.13;;
22502;SDS011;11418;48.118;9.992;2022-09-03T18:08:45;3.08;;;1.98;;
22502;SDS011;11418;48.118;9.992;2022-09-03T18:13:10;3.30;;;2.10;;
22502;SDS011;11418;48.118;9.992;2022-09-03T18:17:34;3.87;;;2.20;;
22502;SDS011;11418;48.118;9.992;2022-09-03T18:21:40;5.63;;;2.70;;
22502;SDS011;11418;48.118;9.992;2022-09-03T18:26:00;3.03;;;2.30;;
22502;SDS011;11418;48.118;9.992;2022-09-03T18:30:24;2.63;;;2.15;;
22502;SDS011;11418;48.118;9.992;2022-09-03T18:34:44;2.85;;;2.45;;
22502;SDS011;11418;48.118;9.992;2022-09-03T18:39:14;2.90;;;2.58;;
22502;SDS011;11418;48.118;9.992;2022-09-03T18:43:51;3.17;;;2.50;;
22502;SDS011;11418;48.118;9.992;2022-09-03T18:48:40;3.42;;;2.50;;
22502;SDS011;11418;48.118;9.992;2022-09-03T18:53:24;2.60;;;2.40;;
22502;SDS011;11418;48.118;9.992;2022-09-03T19:02:50;2.95;;;2.65;;
22502;SDS011;11418;48.118;9.992;2022-09-03T19:12:17;3.00;;;2.70;;
22502;SDS011;11418;48.118;9.992;2022-09-03T19:22:11;3.10;;;2.20;;
22502;SDS011;11418;48.118;9.992;2022-09-03T19:31:55;4.75;;;2.25;;
22502;SDS011;11418;48.118;9.992;2022-09-03T19:45:29;4.22;;;2.40;;
22502;SDS011;11418;48.118;9.992;2022-09-03T19:54:37;2.67;;;2.28;;
22502;SDS011;11418;48.118;9.992;2022-09-03T19:58:59;2.87;;;2.50;;
22502;SDS011;11418;48.118;9.992;2022-09-03T20:03:23;3.10;;;2.22;;
22502;SDS011;11418;48.118;9.992;2022-09-03T20:07:44;3.30;;;2.60;;
22502;SDS011;11418;48.118;9.992;2022-09-03T20:12:07;3.88;;;2.20;;
22502;SDS011;11418;48.118;9.992;2022-09-03T20:16:10;3.00;;;2.45;;
22502;SDS011;11418;48.118;9.992;2022-09-03T20:20:30;3.25;;;2.70;;
22502;SDS011;11418;48.118;9.992;2022-09-03T20:29:28;3.42;;;2.60;;
22502;SDS011;11418;48.118;9.992;2022-09-03T20:33:47;3.45;;;2.50;;
22502;SDS011;11418;48.118;9.992;2022-09-03T20:38:05;4.13;;;2.60;;
22502;SDS011;11418;48.118;9.992;2022-09-03T20:42:25;3.47;;;2.38;;
22502;SDS011;11418;48.118;9.992;2022-09-03T20:51:11;3.13;;;2.13;;
22502;SDS011;11418;48.118;9.992;2022-09-03T20:55:42;2.72;;;2.40;;
22502;SDS011;11418;48.118;9.992;2022-09-03T20:59:53;4.55;;;2.47;;
22502;SDS011;11418;48.118;9.992;2022-09-03T21:04:26;2.72;;;2.38;;
22502;SDS011;11418;48.118;9.992;2022-09-03T21:09:22;3.25;;;2.33;;
22502;SDS011;11418;48.118;9.992;2022-09-03T21:21:39;2.42;;;2.20;;
22502;SDS011;11418;48.118;9.992;2022-09-03T21:30:11;6.57;;;2.42;;
22502;SDS011;11418;48.118;9.992;2022-09-03T21:34:18;3.85;;;2.55;;
22502;SDS011;11418;48.118;9.992;2022-09-03T21:38:37;4.13;;;2.53;;
22502;SDS011;11418;48.118;9.992;2022-09-03T21:42:46;3.13;;;2.72;;
22502;SDS011;11418;48.118;9.992;2022-09-03T21:46:58;4.30;;;3.00;;
22502;SDS011;11418;48.118;9.992;2022-09-03T21:51:09;5.78;;;2.50;;
22502;SDS011;11418;48.118;9.992;2022-09-03T21:55:36;3.65;;;2.58;;
22502;SDS011;11418;48.118;9.992;2022-09-03T22:04:07;4.63;;;2.70;;
22502;SDS011;11418;48.118;9.992;2022-09-03T22:08:15;4.53;;;2.90;;
22502;SDS011;11418;48.118;9.992;2022-09-03T22:12:28;3.58;;;2.80;;
22502;SDS011;11418;48.118;9.992;2022-09-03T22:16:41;3.55;;;2.72;;
22502;SDS011;11418;48.118;9.992;2022-09-03T22:20:51;3.88;;;2.80;;
22502;SDS011;11418;48.118;9.992;2022-09-03T22:25:28;2.75;;;2.35;;
22502;SDS011;11418;48.118;9.992;2022-09-03T22:42:33;3.70;;;2.58;;
22502;SDS011;11418;48.118;9.992;2022-09-03T22:47:04;2.90;;;2.45;;
22502;SDS011;11418;48.118;9.992;2022-09-03T22:51:13;3.65;;;2.63;;
22502;SDS011;11418;48.118;9.992;2022-09-03T22:55:17;6.00;;;2.80;;
22502;SDS011;11418;48.118;9.992;2022-09-03T22:59:28;3.60;;;3.03;;
22502;SDS011;11418;48.118;9.992;2022-09-03T23:07:50;3.03;;;2.42;;
22502;SDS011;11418;48.118;9.992;2022-09-03T23:11:57;2.88;;;2.30;;
22502;SDS011;11418;48.118;9.992;2022-09-03T23:20:20;3.17;;;2.60;;
22502;SDS011;11418;48.118;9.992;2022-09-03T23:28:28;5.20;;;2.78;;
22502;SDS011;11418;48.118;9.992;2022-09-03T23:32:35;4.00;;;2.85;;
22502;SDS011;11418;48.118;9.992;2022-09-03T23:40:55;3.38;;;2.70;;
22502;SDS011;11418;48.118;9.992;2022-09-03T23:45:13;3.92;;;2.72;;
22502;SDS011;11418;48.118;9.992;2022-09-03T23:49:37;3.95;;;2.85;;
22502;SDS011;11418;48.118;9.992;2022-09-03T23:58:41;3.83;;;2.60;;
